<?xml version="1.0" encoding="UTF-8"?>
<gpx version="1.1" creator="GPSBabel - http://www.gpsbabel.org" xmlns="http://www.topografix.com/GPX/1/1" xmlns:xsi="http://www.w3.org/2001/XMLSchema-instance">
  <metadata>
    <name>Les coteaux de Boitron</name>
    <time>2025-08-04T10:04:32.513Z</time>
    <bounds minlat="48.876413000" minlon="3.246582000" maxlat="48.901748000" maxlon="3.293530000"/>
  </metadata>
  <wpt lat="48.890881000" lon="3.251524000">
    <ele>106.000000</ele>
    <time>2025-07-29T15:10:35Z</time>
    <name>Croisement D31 avec D55 (Arret de Bus)</name>
    <cmt>Croisement D31 avec D55 (Arret de Bus)</cmt>
    <desc>Croisement D31 avec D55 (Arret de Bus)</desc>
    <type>GENERIC</type>
  </wpt>
  <wpt lat="48.891541000" lon="3.249731000">
    <ele>99.000000</ele>
    <time>2025-07-29T15:13:13Z</time>
    <name>Sente sous la rue du champs Laurent</name>
    <cmt>Sente sous la rue du champs Laurent</cmt>
    <desc>Sente sous la rue du champs Laurent</desc>
    <type>GENERIC</type>
  </wpt>
  <wpt lat="48.889612000" lon="3.246582000">
    <ele>75.000000</ele>
    <time>2025-07-29T15:18:37Z</time>
    <name>Bécherelle</name>
    <cmt>Bécherelle</cmt>
    <desc>Bécherelle</desc>
    <type>GENERIC</type>
  </wpt>
  <wpt lat="48.886141000" lon="3.252811000">
    <ele>74.000000</ele>
    <time>2025-07-29T15:31:18Z</time>
    <name>Coton</name>
    <cmt>Coton</cmt>
    <desc>Coton</desc>
    <type>GENERIC</type>
  </wpt>
  <wpt lat="48.886004000" lon="3.266735000">
    <ele>82.000000</ele>
    <time>2025-07-29T15:50:31Z</time>
    <name>La Forge</name>
    <cmt>La Forge</cmt>
    <desc>La Forge</desc>
    <type>GENERIC</type>
  </wpt>
  <wpt lat="48.883432000" lon="3.272188000">
    <ele>81.000000</ele>
    <time>2025-07-29T16:00:54Z</time>
    <name>Sentier sous l'ancienne voie ferrée</name>
    <cmt>Sentier sous l'ancienne voie ferrée</cmt>
    <desc>Sentier sous l'ancienne voie ferrée</desc>
    <type>GENERIC</type>
  </wpt>
  <wpt lat="48.876413000" lon="3.289662000">
    <ele>85.000000</ele>
    <time>2025-07-29T16:32:55Z</time>
    <name>Cimetière de Sablonnière</name>
    <cmt>Cimetière de Sablonnière</cmt>
    <desc>Cimetière de Sablonnière</desc>
    <type>GENERIC</type>
  </wpt>
  <wpt lat="48.877842000" lon="3.293530000">
    <ele>80.000000</ele>
    <time>2025-07-29T16:38:29Z</time>
    <name>Lavoir au croisement de routes</name>
    <cmt>Lavoir au croisement de routes</cmt>
    <desc>Lavoir au croisement de routes</desc>
    <type>GENERIC</type>
  </wpt>
  <wpt lat="48.884417000" lon="3.290142000">
    <ele>136.000000</ele>
    <time>2025-07-29T17:03:49Z</time>
    <name>Le Jariel</name>
    <cmt>Le Jariel</cmt>
    <desc>Le Jariel</desc>
    <type>GENERIC</type>
  </wpt>
  <wpt lat="48.890553000" lon="3.285504000">
    <ele>160.000000</ele>
    <time>2025-07-29T17:25:25Z</time>
    <name>Marlande</name>
    <cmt>Marlande</cmt>
    <desc>Marlande</desc>
    <type>GENERIC</type>
  </wpt>
  <wpt lat="48.894525000" lon="3.274149000">
    <ele>169.000000</ele>
    <time>2025-07-29T17:43:56Z</time>
    <name>Point de passage 11</name>
    <cmt>Point de passage 11</cmt>
    <desc>Point de passage 11</desc>
    <type>GENERIC</type>
  </wpt>
  <wpt lat="48.892360000" lon="3.273168000">
    <ele>143.000000</ele>
    <time>2025-07-29T17:48:16Z</time>
    <name>Croisement de chemins dans les bois</name>
    <cmt>Croisement de chemins dans les bois</cmt>
    <desc>Croisement de chemins dans les bois</desc>
    <type>GENERIC</type>
  </wpt>
  <wpt lat="48.895131000" lon="3.264523000">
    <ele>173.000000</ele>
    <time>2025-07-29T18:06:32Z</time>
    <name>Point de passage 13</name>
    <cmt>Point de passage 13</cmt>
    <desc>Point de passage 13</desc>
    <type>GENERIC</type>
  </wpt>
  <wpt lat="48.895606000" lon="3.260016000">
    <ele>177.000000</ele>
    <time>2025-07-29T18:13:10Z</time>
    <name>Route du Montcet</name>
    <cmt>Route du Montcet</cmt>
    <desc>Route du Montcet</desc>
    <type>GENERIC</type>
  </wpt>
  <wpt lat="48.901748000" lon="3.260068000">
    <ele>186.000000</ele>
    <time>2025-07-29T18:27:38Z</time>
    <name>Cimetière de Boitron</name>
    <cmt>Cimetière de Boitron</cmt>
    <desc>Cimetière de Boitron</desc>
    <type>GENERIC</type>
  </wpt>
  <wpt lat="48.899924000" lon="3.252254000">
    <ele>154.000000</ele>
    <time>2025-07-29T18:38:27Z</time>
    <name>Route d'Orly sur Morin vers Boitron</name>
    <cmt>Route d'Orly sur Morin vers Boitron</cmt>
    <desc>Route d'Orly sur Morin vers Boitron</desc>
    <type>GENERIC</type>
  </wpt>
  <wpt lat="48.893957000" lon="3.257103000">
    <ele>166.000000</ele>
    <time>2025-07-29T18:57:10Z</time>
    <name>Croisement de routes et chemins</name>
    <cmt>Croisement de routes et chemins</cmt>
    <desc>Croisement de routes et chemins</desc>
    <type>GENERIC</type>
  </wpt>
  <wpt lat="48.890894000" lon="3.251532000">
    <ele>107.000000</ele>
    <time>2025-07-29T19:06:58Z</time>
    <name>Croisement D31 avec D55 (arrêt de bus)</name>
    <cmt>Croisement D31 avec D55 (arrêt de bus)</cmt>
    <desc>Croisement D31 avec D55 (arrêt de bus)</desc>
    <type>GENERIC</type>
  </wpt>
  <trk>
    <name>randogps77-330</name>
    <trkseg>
      <trkpt lat="48.890881000" lon="3.251524000">
        <ele>106.000000</ele>
        <time>2025-07-29T15:10:35Z</time>
      </trkpt>
      <trkpt lat="48.890957000" lon="3.250920000">
        <ele>105.000000</ele>
        <time>2025-07-29T15:11:21Z</time>
      </trkpt>
      <trkpt lat="48.891221000" lon="3.250358000">
        <ele>102.000000</ele>
        <time>2025-07-29T15:12:13Z</time>
      </trkpt>
      <trkpt lat="48.891541000" lon="3.249731000">
        <ele>99.000000</ele>
        <time>2025-07-29T15:13:13Z</time>
      </trkpt>
      <trkpt lat="48.890867000" lon="3.248592000">
        <ele>90.000000</ele>
        <time>2025-07-29T15:15:08Z</time>
      </trkpt>
      <trkpt lat="48.890693000" lon="3.248306000">
        <ele>87.000000</ele>
        <time>2025-07-29T15:15:37Z</time>
      </trkpt>
      <trkpt lat="48.889722000" lon="3.246819000">
        <ele>76.000000</ele>
        <time>2025-07-29T15:18:15Z</time>
      </trkpt>
      <trkpt lat="48.889612000" lon="3.246582000">
        <ele>75.000000</ele>
        <time>2025-07-29T15:18:37Z</time>
      </trkpt>
      <trkpt lat="48.889030000" lon="3.247181000">
        <ele>74.000000</ele>
        <time>2025-07-29T15:19:57Z</time>
      </trkpt>
      <trkpt lat="48.888851000" lon="3.247541000">
        <ele>73.000000</ele>
        <time>2025-07-29T15:20:31Z</time>
      </trkpt>
      <trkpt lat="48.888397000" lon="3.248514000">
        <ele>73.000000</ele>
        <time>2025-07-29T15:22:01Z</time>
      </trkpt>
      <trkpt lat="48.888333000" lon="3.248920000">
        <ele>73.000000</ele>
        <time>2025-07-29T15:22:32Z</time>
      </trkpt>
      <trkpt lat="48.888110000" lon="3.249683000">
        <ele>73.000000</ele>
        <time>2025-07-29T15:23:35Z</time>
      </trkpt>
      <trkpt lat="48.888063000" lon="3.249843000">
        <ele>74.000000</ele>
        <time>2025-07-29T15:23:58Z</time>
      </trkpt>
      <trkpt lat="48.887331000" lon="3.249370000">
        <ele>74.000000</ele>
        <time>2025-07-29T15:25:29Z</time>
      </trkpt>
      <trkpt lat="48.887090000" lon="3.249269000">
        <ele>73.000000</ele>
        <time>2025-07-29T15:25:58Z</time>
      </trkpt>
      <trkpt lat="48.886833000" lon="3.249380000">
        <ele>74.000000</ele>
        <time>2025-07-29T15:26:39Z</time>
      </trkpt>
      <trkpt lat="48.886691000" lon="3.249550000">
        <ele>74.000000</ele>
        <time>2025-07-29T15:27:00Z</time>
      </trkpt>
      <trkpt lat="48.886555000" lon="3.249785000">
        <ele>74.000000</ele>
        <time>2025-07-29T15:27:24Z</time>
      </trkpt>
      <trkpt lat="48.886238000" lon="3.251618000">
        <ele>74.000000</ele>
        <time>2025-07-29T15:29:47Z</time>
      </trkpt>
      <trkpt lat="48.886108000" lon="3.252571000">
        <ele>74.000000</ele>
        <time>2025-07-29T15:31:00Z</time>
      </trkpt>
      <trkpt lat="48.886141000" lon="3.252811000">
        <ele>74.000000</ele>
        <time>2025-07-29T15:31:18Z</time>
      </trkpt>
      <trkpt lat="48.886241000" lon="3.253477000">
        <ele>74.000000</ele>
        <time>2025-07-29T15:32:09Z</time>
      </trkpt>
      <trkpt lat="48.886441000" lon="3.255001000">
        <ele>73.000000</ele>
        <time>2025-07-29T15:34:06Z</time>
      </trkpt>
      <trkpt lat="48.886437000" lon="3.255596000">
        <ele>73.000000</ele>
        <time>2025-07-29T15:34:51Z</time>
      </trkpt>
      <trkpt lat="48.886348000" lon="3.257129000">
        <ele>75.000000</ele>
        <time>2025-07-29T15:37:07Z</time>
      </trkpt>
      <trkpt lat="48.885926000" lon="3.259194000">
        <ele>79.000000</ele>
        <time>2025-07-29T15:40:31Z</time>
      </trkpt>
      <trkpt lat="48.885888000" lon="3.259869000">
        <ele>81.000000</ele>
        <time>2025-07-29T15:41:43Z</time>
      </trkpt>
      <trkpt lat="48.885922000" lon="3.262772000">
        <ele>82.000000</ele>
        <time>2025-07-29T15:45:32Z</time>
      </trkpt>
      <trkpt lat="48.886067000" lon="3.265649000">
        <ele>82.000000</ele>
        <time>2025-07-29T15:49:09Z</time>
      </trkpt>
      <trkpt lat="48.886070000" lon="3.266330000">
        <ele>82.000000</ele>
        <time>2025-07-29T15:50:00Z</time>
      </trkpt>
      <trkpt lat="48.886004000" lon="3.266735000">
        <ele>82.000000</ele>
        <time>2025-07-29T15:50:31Z</time>
      </trkpt>
      <trkpt lat="48.885784000" lon="3.267715000">
        <ele>81.000000</ele>
        <time>2025-07-29T15:51:49Z</time>
      </trkpt>
      <trkpt lat="48.885770000" lon="3.268014000">
        <ele>79.000000</ele>
        <time>2025-07-29T15:52:12Z</time>
      </trkpt>
      <trkpt lat="48.885914000" lon="3.268467000">
        <ele>77.000000</ele>
        <time>2025-07-29T15:52:50Z</time>
      </trkpt>
      <trkpt lat="48.885822000" lon="3.268777000">
        <ele>76.000000</ele>
        <time>2025-07-29T15:53:16Z</time>
      </trkpt>
      <trkpt lat="48.885525000" lon="3.269139000">
        <ele>76.000000</ele>
        <time>2025-07-29T15:54:00Z</time>
      </trkpt>
      <trkpt lat="48.885293000" lon="3.269304000">
        <ele>76.000000</ele>
        <time>2025-07-29T15:54:29Z</time>
      </trkpt>
      <trkpt lat="48.885018000" lon="3.269913000">
        <ele>76.000000</ele>
        <time>2025-07-29T15:55:25Z</time>
      </trkpt>
      <trkpt lat="48.884740000" lon="3.270519000">
        <ele>76.000000</ele>
        <time>2025-07-29T15:56:21Z</time>
      </trkpt>
      <trkpt lat="48.884385000" lon="3.271469000">
        <ele>77.000000</ele>
        <time>2025-07-29T15:57:54Z</time>
      </trkpt>
      <trkpt lat="48.884222000" lon="3.271866000">
        <ele>77.000000</ele>
        <time>2025-07-29T15:58:29Z</time>
      </trkpt>
      <trkpt lat="48.883948000" lon="3.272244000">
        <ele>77.000000</ele>
        <time>2025-07-29T15:59:11Z</time>
      </trkpt>
      <trkpt lat="48.883855000" lon="3.272317000">
        <ele>77.000000</ele>
        <time>2025-07-29T15:59:23Z</time>
      </trkpt>
      <trkpt lat="48.883706000" lon="3.272332000">
        <ele>78.000000</ele>
        <time>2025-07-29T15:59:50Z</time>
      </trkpt>
      <trkpt lat="48.883432000" lon="3.272188000">
        <ele>81.000000</ele>
        <time>2025-07-29T16:00:54Z</time>
      </trkpt>
      <trkpt lat="48.883226000" lon="3.272390000">
        <ele>83.000000</ele>
        <time>2025-07-29T16:01:43Z</time>
      </trkpt>
      <trkpt lat="48.882910000" lon="3.272788000">
        <ele>84.000000</ele>
        <time>2025-07-29T16:02:40Z</time>
      </trkpt>
      <trkpt lat="48.882662000" lon="3.273180000">
        <ele>81.000000</ele>
        <time>2025-07-29T16:03:21Z</time>
      </trkpt>
      <trkpt lat="48.882483000" lon="3.273569000">
        <ele>80.000000</ele>
        <time>2025-07-29T16:03:57Z</time>
      </trkpt>
      <trkpt lat="48.882285000" lon="3.273776000">
        <ele>82.000000</ele>
        <time>2025-07-29T16:04:45Z</time>
      </trkpt>
      <trkpt lat="48.882150000" lon="3.273837000">
        <ele>82.000000</ele>
        <time>2025-07-29T16:05:01Z</time>
      </trkpt>
      <trkpt lat="48.881863000" lon="3.273809000">
        <ele>84.000000</ele>
        <time>2025-07-29T16:05:54Z</time>
      </trkpt>
      <trkpt lat="48.881685000" lon="3.273970000">
        <ele>85.000000</ele>
        <time>2025-07-29T16:06:28Z</time>
      </trkpt>
      <trkpt lat="48.881414000" lon="3.274405000">
        <ele>84.000000</ele>
        <time>2025-07-29T16:07:13Z</time>
      </trkpt>
      <trkpt lat="48.880985000" lon="3.275182000">
        <ele>84.000000</ele>
        <time>2025-07-29T16:08:29Z</time>
      </trkpt>
      <trkpt lat="48.880652000" lon="3.275900000">
        <ele>79.000000</ele>
        <time>2025-07-29T16:09:35Z</time>
      </trkpt>
      <trkpt lat="48.880568000" lon="3.276104000">
        <ele>79.000000</ele>
        <time>2025-07-29T16:09:53Z</time>
      </trkpt>
      <trkpt lat="48.880398000" lon="3.276265000">
        <ele>80.000000</ele>
        <time>2025-07-29T16:10:26Z</time>
      </trkpt>
      <trkpt lat="48.880174000" lon="3.276405000">
        <ele>81.000000</ele>
        <time>2025-07-29T16:11:04Z</time>
      </trkpt>
      <trkpt lat="48.879955000" lon="3.276459000">
        <ele>81.000000</ele>
        <time>2025-07-29T16:11:29Z</time>
      </trkpt>
      <trkpt lat="48.879577000" lon="3.276899000">
        <ele>79.000000</ele>
        <time>2025-07-29T16:12:24Z</time>
      </trkpt>
      <trkpt lat="48.879410000" lon="3.277252000">
        <ele>76.000000</ele>
        <time>2025-07-29T16:12:57Z</time>
      </trkpt>
      <trkpt lat="48.878658000" lon="3.278002000">
        <ele>78.000000</ele>
        <time>2025-07-29T16:15:01Z</time>
      </trkpt>
      <trkpt lat="48.878531000" lon="3.278233000">
        <ele>79.000000</ele>
        <time>2025-07-29T16:15:34Z</time>
      </trkpt>
      <trkpt lat="48.878126000" lon="3.279526000">
        <ele>79.000000</ele>
        <time>2025-07-29T16:17:22Z</time>
      </trkpt>
      <trkpt lat="48.878056000" lon="3.279817000">
        <ele>79.000000</ele>
        <time>2025-07-29T16:17:45Z</time>
      </trkpt>
      <trkpt lat="48.877617000" lon="3.280614000">
        <ele>80.000000</ele>
        <time>2025-07-29T16:19:14Z</time>
      </trkpt>
      <trkpt lat="48.877350000" lon="3.281221000">
        <ele>81.000000</ele>
        <time>2025-07-29T16:20:19Z</time>
      </trkpt>
      <trkpt lat="48.877203000" lon="3.281671000">
        <ele>82.000000</ele>
        <time>2025-07-29T16:21:07Z</time>
      </trkpt>
      <trkpt lat="48.877067000" lon="3.282173000">
        <ele>83.000000</ele>
        <time>2025-07-29T16:21:58Z</time>
      </trkpt>
      <trkpt lat="48.876936000" lon="3.283125000">
        <ele>82.000000</ele>
        <time>2025-07-29T16:23:11Z</time>
      </trkpt>
      <trkpt lat="48.876801000" lon="3.285080000">
        <ele>80.000000</ele>
        <time>2025-07-29T16:25:39Z</time>
      </trkpt>
      <trkpt lat="48.876771000" lon="3.286221000">
        <ele>82.000000</ele>
        <time>2025-07-29T16:27:26Z</time>
      </trkpt>
      <trkpt lat="48.876795000" lon="3.287347000">
        <ele>81.000000</ele>
        <time>2025-07-29T16:28:51Z</time>
      </trkpt>
      <trkpt lat="48.876807000" lon="3.287974000">
        <ele>79.000000</ele>
        <time>2025-07-29T16:29:38Z</time>
      </trkpt>
      <trkpt lat="48.876720000" lon="3.288608000">
        <ele>80.000000</ele>
        <time>2025-07-29T16:30:37Z</time>
      </trkpt>
      <trkpt lat="48.876413000" lon="3.289662000">
        <ele>85.000000</ele>
        <time>2025-07-29T16:32:55Z</time>
      </trkpt>
      <trkpt lat="48.877842000" lon="3.293530000">
        <ele>80.000000</ele>
        <time>2025-07-29T16:38:29Z</time>
      </trkpt>
      <trkpt lat="48.878558000" lon="3.292380000">
        <ele>80.000000</ele>
        <time>2025-07-29T16:40:28Z</time>
      </trkpt>
      <trkpt lat="48.878720000" lon="3.292298000">
        <ele>81.000000</ele>
        <time>2025-07-29T16:40:58Z</time>
      </trkpt>
      <trkpt lat="48.879585000" lon="3.291610000">
        <ele>85.000000</ele>
        <time>2025-07-29T16:43:31Z</time>
      </trkpt>
      <trkpt lat="48.879694000" lon="3.291368000">
        <ele>86.000000</ele>
        <time>2025-07-29T16:44:03Z</time>
      </trkpt>
      <trkpt lat="48.880208000" lon="3.290585000">
        <ele>91.000000</ele>
        <time>2025-07-29T16:46:18Z</time>
      </trkpt>
      <trkpt lat="48.880555000" lon="3.289991000">
        <ele>94.000000</ele>
        <time>2025-07-29T16:47:49Z</time>
      </trkpt>
      <trkpt lat="48.880758000" lon="3.289549000">
        <ele>95.000000</ele>
        <time>2025-07-29T16:48:40Z</time>
      </trkpt>
      <trkpt lat="48.881139000" lon="3.288511000">
        <ele>98.000000</ele>
        <time>2025-07-29T16:50:40Z</time>
      </trkpt>
      <trkpt lat="48.881762000" lon="3.288892000">
        <ele>106.000000</ele>
        <time>2025-07-29T16:53:19Z</time>
      </trkpt>
      <trkpt lat="48.883062000" lon="3.289577000">
        <ele>122.000000</ele>
        <time>2025-07-29T16:58:41Z</time>
      </trkpt>
      <trkpt lat="48.883521000" lon="3.289687000">
        <ele>128.000000</ele>
        <time>2025-07-29T17:00:36Z</time>
      </trkpt>
      <trkpt lat="48.884095000" lon="3.289825000">
        <ele>133.000000</ele>
        <time>2025-07-29T17:02:34Z</time>
      </trkpt>
      <trkpt lat="48.884417000" lon="3.290142000">
        <ele>136.000000</ele>
        <time>2025-07-29T17:03:49Z</time>
      </trkpt>
      <trkpt lat="48.884767000" lon="3.290356000">
        <ele>140.000000</ele>
        <time>2025-07-29T17:05:13Z</time>
      </trkpt>
      <trkpt lat="48.885189000" lon="3.290584000">
        <ele>142.000000</ele>
        <time>2025-07-29T17:06:25Z</time>
      </trkpt>
      <trkpt lat="48.885321000" lon="3.290022000">
        <ele>143.000000</ele>
        <time>2025-07-29T17:07:20Z</time>
      </trkpt>
      <trkpt lat="48.885378000" lon="3.289705000">
        <ele>142.000000</ele>
        <time>2025-07-29T17:07:45Z</time>
      </trkpt>
      <trkpt lat="48.885382000" lon="3.289270000">
        <ele>142.000000</ele>
        <time>2025-07-29T17:08:18Z</time>
      </trkpt>
      <trkpt lat="48.885410000" lon="3.289097000">
        <ele>142.000000</ele>
        <time>2025-07-29T17:08:31Z</time>
      </trkpt>
      <trkpt lat="48.885758000" lon="3.288894000">
        <ele>143.000000</ele>
        <time>2025-07-29T17:09:24Z</time>
      </trkpt>
      <trkpt lat="48.886018000" lon="3.288741000">
        <ele>144.000000</ele>
        <time>2025-07-29T17:10:06Z</time>
      </trkpt>
      <trkpt lat="48.886206000" lon="3.288502000">
        <ele>144.000000</ele>
        <time>2025-07-29T17:10:34Z</time>
      </trkpt>
      <trkpt lat="48.886506000" lon="3.287733000">
        <ele>144.000000</ele>
        <time>2025-07-29T17:11:41Z</time>
      </trkpt>
      <trkpt lat="48.886718000" lon="3.287102000">
        <ele>143.000000</ele>
        <time>2025-07-29T17:12:34Z</time>
      </trkpt>
      <trkpt lat="48.886968000" lon="3.286157000">
        <ele>143.000000</ele>
        <time>2025-07-29T17:13:51Z</time>
      </trkpt>
      <trkpt lat="48.887189000" lon="3.285459000">
        <ele>142.000000</ele>
        <time>2025-07-29T17:14:49Z</time>
      </trkpt>
      <trkpt lat="48.887369000" lon="3.285093000">
        <ele>142.000000</ele>
        <time>2025-07-29T17:15:23Z</time>
      </trkpt>
      <trkpt lat="48.887870000" lon="3.284321000">
        <ele>142.000000</ele>
        <time>2025-07-29T17:16:45Z</time>
      </trkpt>
      <trkpt lat="48.888046000" lon="3.284204000">
        <ele>143.000000</ele>
        <time>2025-07-29T17:17:17Z</time>
      </trkpt>
      <trkpt lat="48.889347000" lon="3.285299000">
        <ele>152.000000</ele>
        <time>2025-07-29T17:21:40Z</time>
      </trkpt>
      <trkpt lat="48.889769000" lon="3.285235000">
        <ele>155.000000</ele>
        <time>2025-07-29T17:22:59Z</time>
      </trkpt>
      <trkpt lat="48.889939000" lon="3.285261000">
        <ele>155.000000</ele>
        <time>2025-07-29T17:23:19Z</time>
      </trkpt>
      <trkpt lat="48.890317000" lon="3.285499000">
        <ele>158.000000</ele>
        <time>2025-07-29T17:24:37Z</time>
      </trkpt>
      <trkpt lat="48.890553000" lon="3.285504000">
        <ele>160.000000</ele>
        <time>2025-07-29T17:25:25Z</time>
      </trkpt>
      <trkpt lat="48.890551000" lon="3.285122000">
        <ele>160.000000</ele>
        <time>2025-07-29T17:25:54Z</time>
      </trkpt>
      <trkpt lat="48.890636000" lon="3.284822000">
        <ele>160.000000</ele>
        <time>2025-07-29T17:26:19Z</time>
      </trkpt>
      <trkpt lat="48.890875000" lon="3.284475000">
        <ele>160.000000</ele>
        <time>2025-07-29T17:26:57Z</time>
      </trkpt>
      <trkpt lat="48.891061000" lon="3.284136000">
        <ele>160.000000</ele>
        <time>2025-07-29T17:27:30Z</time>
      </trkpt>
      <trkpt lat="48.891225000" lon="3.283539000">
        <ele>161.000000</ele>
        <time>2025-07-29T17:28:29Z</time>
      </trkpt>
      <trkpt lat="48.891477000" lon="3.282613000">
        <ele>162.000000</ele>
        <time>2025-07-29T17:29:55Z</time>
      </trkpt>
      <trkpt lat="48.891784000" lon="3.280857000">
        <ele>161.000000</ele>
        <time>2025-07-29T17:32:12Z</time>
      </trkpt>
      <trkpt lat="48.891928000" lon="3.280774000">
        <ele>162.000000</ele>
        <time>2025-07-29T17:32:40Z</time>
      </trkpt>
      <trkpt lat="48.892201000" lon="3.280742000">
        <ele>163.000000</ele>
        <time>2025-07-29T17:33:22Z</time>
      </trkpt>
      <trkpt lat="48.892399000" lon="3.280545000">
        <ele>163.000000</ele>
        <time>2025-07-29T17:33:49Z</time>
      </trkpt>
      <trkpt lat="48.892455000" lon="3.280214000">
        <ele>163.000000</ele>
        <time>2025-07-29T17:34:15Z</time>
      </trkpt>
      <trkpt lat="48.892645000" lon="3.279548000">
        <ele>163.000000</ele>
        <time>2025-07-29T17:35:10Z</time>
      </trkpt>
      <trkpt lat="48.892971000" lon="3.278715000">
        <ele>164.000000</ele>
        <time>2025-07-29T17:36:33Z</time>
      </trkpt>
      <trkpt lat="48.893565000" lon="3.277496000">
        <ele>165.000000</ele>
        <time>2025-07-29T17:38:38Z</time>
      </trkpt>
      <trkpt lat="48.893900000" lon="3.276780000">
        <ele>167.000000</ele>
        <time>2025-07-29T17:40:05Z</time>
      </trkpt>
      <trkpt lat="48.894222000" lon="3.275610000">
        <ele>167.000000</ele>
        <time>2025-07-29T17:41:40Z</time>
      </trkpt>
      <trkpt lat="48.894525000" lon="3.274149000">
        <ele>169.000000</ele>
        <time>2025-07-29T17:43:56Z</time>
      </trkpt>
      <trkpt lat="48.894352000" lon="3.274045000">
        <ele>167.000000</ele>
        <time>2025-07-29T17:44:17Z</time>
      </trkpt>
      <trkpt lat="48.893812000" lon="3.273993000">
        <ele>162.000000</ele>
        <time>2025-07-29T17:45:19Z</time>
      </trkpt>
      <trkpt lat="48.893520000" lon="3.273883000">
        <ele>158.000000</ele>
        <time>2025-07-29T17:45:53Z</time>
      </trkpt>
      <trkpt lat="48.892360000" lon="3.273168000">
        <ele>143.000000</ele>
        <time>2025-07-29T17:48:16Z</time>
      </trkpt>
      <trkpt lat="48.892498000" lon="3.272217000">
        <ele>144.000000</ele>
        <time>2025-07-29T17:49:40Z</time>
      </trkpt>
      <trkpt lat="48.892631000" lon="3.271330000">
        <ele>145.000000</ele>
        <time>2025-07-29T17:50:59Z</time>
      </trkpt>
      <trkpt lat="48.892666000" lon="3.271133000">
        <ele>145.000000</ele>
        <time>2025-07-29T17:51:14Z</time>
      </trkpt>
      <trkpt lat="48.892771000" lon="3.270886000">
        <ele>146.000000</ele>
        <time>2025-07-29T17:51:46Z</time>
      </trkpt>
      <trkpt lat="48.892877000" lon="3.270855000">
        <ele>147.000000</ele>
        <time>2025-07-29T17:52:09Z</time>
      </trkpt>
      <trkpt lat="48.893066000" lon="3.270921000">
        <ele>150.000000</ele>
        <time>2025-07-29T17:53:02Z</time>
      </trkpt>
      <trkpt lat="48.893228000" lon="3.270806000">
        <ele>151.000000</ele>
        <time>2025-07-29T17:53:33Z</time>
      </trkpt>
      <trkpt lat="48.893468000" lon="3.269612000">
        <ele>155.000000</ele>
        <time>2025-07-29T17:55:48Z</time>
      </trkpt>
      <trkpt lat="48.893490000" lon="3.269159000">
        <ele>155.000000</ele>
        <time>2025-07-29T17:56:22Z</time>
      </trkpt>
      <trkpt lat="48.893604000" lon="3.268520000">
        <ele>157.000000</ele>
        <time>2025-07-29T17:57:32Z</time>
      </trkpt>
      <trkpt lat="48.893634000" lon="3.267446000">
        <ele>158.000000</ele>
        <time>2025-07-29T17:59:03Z</time>
      </trkpt>
      <trkpt lat="48.893718000" lon="3.266850000">
        <ele>158.000000</ele>
        <time>2025-07-29T17:59:49Z</time>
      </trkpt>
      <trkpt lat="48.893851000" lon="3.266590000">
        <ele>160.000000</ele>
        <time>2025-07-29T18:00:34Z</time>
      </trkpt>
      <trkpt lat="48.893949000" lon="3.265981000">
        <ele>162.000000</ele>
        <time>2025-07-29T18:01:42Z</time>
      </trkpt>
      <trkpt lat="48.894013000" lon="3.265858000">
        <ele>163.000000</ele>
        <time>2025-07-29T18:02:04Z</time>
      </trkpt>
      <trkpt lat="48.894601000" lon="3.265153000">
        <ele>169.000000</ele>
        <time>2025-07-29T18:04:31Z</time>
      </trkpt>
      <trkpt lat="48.894814000" lon="3.264723000">
        <ele>171.000000</ele>
        <time>2025-07-29T18:05:32Z</time>
      </trkpt>
      <trkpt lat="48.895131000" lon="3.264523000">
        <ele>173.000000</ele>
        <time>2025-07-29T18:06:32Z</time>
      </trkpt>
      <trkpt lat="48.894988000" lon="3.264038000">
        <ele>173.000000</ele>
        <time>2025-07-29T18:07:12Z</time>
      </trkpt>
      <trkpt lat="48.894965000" lon="3.263448000">
        <ele>173.000000</ele>
        <time>2025-07-29T18:07:56Z</time>
      </trkpt>
      <trkpt lat="48.894968000" lon="3.262790000">
        <ele>173.000000</ele>
        <time>2025-07-29T18:08:46Z</time>
      </trkpt>
      <trkpt lat="48.895043000" lon="3.262363000">
        <ele>174.000000</ele>
        <time>2025-07-29T18:09:30Z</time>
      </trkpt>
      <trkpt lat="48.895056000" lon="3.262031000">
        <ele>174.000000</ele>
        <time>2025-07-29T18:09:55Z</time>
      </trkpt>
      <trkpt lat="48.895166000" lon="3.261542000">
        <ele>175.000000</ele>
        <time>2025-07-29T18:10:44Z</time>
      </trkpt>
      <trkpt lat="48.895360000" lon="3.260810000">
        <ele>176.000000</ele>
        <time>2025-07-29T18:11:54Z</time>
      </trkpt>
      <trkpt lat="48.895606000" lon="3.260016000">
        <ele>177.000000</ele>
        <time>2025-07-29T18:13:10Z</time>
      </trkpt>
      <trkpt lat="48.896799000" lon="3.260382000">
        <ele>181.000000</ele>
        <time>2025-07-29T18:16:10Z</time>
      </trkpt>
      <trkpt lat="48.897621000" lon="3.260634000">
        <ele>183.000000</ele>
        <time>2025-07-29T18:18:07Z</time>
      </trkpt>
      <trkpt lat="48.898172000" lon="3.260862000">
        <ele>184.000000</ele>
        <time>2025-07-29T18:19:23Z</time>
      </trkpt>
      <trkpt lat="48.898643000" lon="3.261037000">
        <ele>186.000000</ele>
        <time>2025-07-29T18:20:39Z</time>
      </trkpt>
      <trkpt lat="48.900113000" lon="3.261092000">
        <ele>188.000000</ele>
        <time>2025-07-29T18:23:48Z</time>
      </trkpt>
      <trkpt lat="48.900573000" lon="3.261073000">
        <ele>189.000000</ele>
        <time>2025-07-29T18:24:51Z</time>
      </trkpt>
      <trkpt lat="48.901035000" lon="3.261072000">
        <ele>188.000000</ele>
        <time>2025-07-29T18:25:44Z</time>
      </trkpt>
      <trkpt lat="48.901331000" lon="3.260870000">
        <ele>188.000000</ele>
        <time>2025-07-29T18:26:21Z</time>
      </trkpt>
      <trkpt lat="48.901748000" lon="3.260068000">
        <ele>186.000000</ele>
        <time>2025-07-29T18:27:38Z</time>
      </trkpt>
      <trkpt lat="48.901519000" lon="3.259741000">
        <ele>186.000000</ele>
        <time>2025-07-29T18:28:14Z</time>
      </trkpt>
      <trkpt lat="48.901632000" lon="3.258969000">
        <ele>184.000000</ele>
        <time>2025-07-29T18:29:14Z</time>
      </trkpt>
      <trkpt lat="48.901588000" lon="3.258644000">
        <ele>184.000000</ele>
        <time>2025-07-29T18:29:39Z</time>
      </trkpt>
      <trkpt lat="48.901433000" lon="3.258077000">
        <ele>182.000000</ele>
        <time>2025-07-29T18:30:25Z</time>
      </trkpt>
      <trkpt lat="48.901243000" lon="3.257564000">
        <ele>182.000000</ele>
        <time>2025-07-29T18:31:09Z</time>
      </trkpt>
      <trkpt lat="48.901116000" lon="3.257150000">
        <ele>181.000000</ele>
        <time>2025-07-29T18:31:43Z</time>
      </trkpt>
      <trkpt lat="48.901022000" lon="3.256822000">
        <ele>180.000000</ele>
        <time>2025-07-29T18:32:10Z</time>
      </trkpt>
      <trkpt lat="48.900901000" lon="3.256124000">
        <ele>178.000000</ele>
        <time>2025-07-29T18:33:04Z</time>
      </trkpt>
      <trkpt lat="48.900849000" lon="3.255679000">
        <ele>176.000000</ele>
        <time>2025-07-29T18:33:38Z</time>
      </trkpt>
      <trkpt lat="48.900810000" lon="3.254777000">
        <ele>171.000000</ele>
        <time>2025-07-29T18:34:46Z</time>
      </trkpt>
      <trkpt lat="48.900310000" lon="3.252766000">
        <ele>158.000000</ele>
        <time>2025-07-29T18:37:28Z</time>
      </trkpt>
      <trkpt lat="48.899924000" lon="3.252254000">
        <ele>154.000000</ele>
        <time>2025-07-29T18:38:27Z</time>
      </trkpt>
      <trkpt lat="48.899762000" lon="3.252290000">
        <ele>154.000000</ele>
        <time>2025-07-29T18:38:46Z</time>
      </trkpt>
      <trkpt lat="48.899330000" lon="3.252757000">
        <ele>159.000000</ele>
        <time>2025-07-29T18:40:38Z</time>
      </trkpt>
      <trkpt lat="48.898984000" lon="3.253063000">
        <ele>161.000000</ele>
        <time>2025-07-29T18:41:44Z</time>
      </trkpt>
      <trkpt lat="48.898584000" lon="3.253477000">
        <ele>163.000000</ele>
        <time>2025-07-29T18:43:00Z</time>
      </trkpt>
      <trkpt lat="48.898269000" lon="3.254086000">
        <ele>166.000000</ele>
        <time>2025-07-29T18:44:29Z</time>
      </trkpt>
      <trkpt lat="48.897880000" lon="3.253338000">
        <ele>161.000000</ele>
        <time>2025-07-29T18:45:41Z</time>
      </trkpt>
      <trkpt lat="48.897808000" lon="3.252854000">
        <ele>157.000000</ele>
        <time>2025-07-29T18:46:18Z</time>
      </trkpt>
      <trkpt lat="48.897298000" lon="3.253303000">
        <ele>159.000000</ele>
        <time>2025-07-29T18:47:46Z</time>
      </trkpt>
      <trkpt lat="48.896495000" lon="3.253955000">
        <ele>161.000000</ele>
        <time>2025-07-29T18:49:51Z</time>
      </trkpt>
      <trkpt lat="48.896307000" lon="3.254158000">
        <ele>161.000000</ele>
        <time>2025-07-29T18:50:17Z</time>
      </trkpt>
      <trkpt lat="48.895956000" lon="3.254550000">
        <ele>163.000000</ele>
        <time>2025-07-29T18:51:27Z</time>
      </trkpt>
      <trkpt lat="48.895564000" lon="3.254961000">
        <ele>164.000000</ele>
        <time>2025-07-29T18:52:32Z</time>
      </trkpt>
      <trkpt lat="48.895085000" lon="3.255451000">
        <ele>165.000000</ele>
        <time>2025-07-29T18:53:48Z</time>
      </trkpt>
      <trkpt lat="48.894893000" lon="3.255657000">
        <ele>165.000000</ele>
        <time>2025-07-29T18:54:15Z</time>
      </trkpt>
      <trkpt lat="48.894385000" lon="3.256596000">
        <ele>167.000000</ele>
        <time>2025-07-29T18:56:07Z</time>
      </trkpt>
      <trkpt lat="48.894105000" lon="3.256998000">
        <ele>167.000000</ele>
        <time>2025-07-29T18:56:51Z</time>
      </trkpt>
      <trkpt lat="48.893957000" lon="3.257103000">
        <ele>166.000000</ele>
        <time>2025-07-29T18:57:10Z</time>
      </trkpt>
      <trkpt lat="48.893950000" lon="3.256867000">
        <ele>165.000000</ele>
        <time>2025-07-29T18:57:28Z</time>
      </trkpt>
      <trkpt lat="48.893872000" lon="3.256722000">
        <ele>164.000000</ele>
        <time>2025-07-29T18:57:42Z</time>
      </trkpt>
      <trkpt lat="48.893775000" lon="3.256287000">
        <ele>161.000000</ele>
        <time>2025-07-29T18:58:17Z</time>
      </trkpt>
      <trkpt lat="48.893788000" lon="3.255494000">
        <ele>156.000000</ele>
        <time>2025-07-29T18:59:17Z</time>
      </trkpt>
      <trkpt lat="48.893799000" lon="3.255369000">
        <ele>154.000000</ele>
        <time>2025-07-29T18:59:26Z</time>
      </trkpt>
      <trkpt lat="48.893703000" lon="3.255150000">
        <ele>152.000000</ele>
        <time>2025-07-29T18:59:46Z</time>
      </trkpt>
      <trkpt lat="48.893518000" lon="3.254917000">
        <ele>147.000000</ele>
        <time>2025-07-29T19:00:14Z</time>
      </trkpt>
      <trkpt lat="48.892876000" lon="3.254322000">
        <ele>139.000000</ele>
        <time>2025-07-29T19:01:40Z</time>
      </trkpt>
      <trkpt lat="48.892597000" lon="3.254057000">
        <ele>135.000000</ele>
        <time>2025-07-29T19:02:18Z</time>
      </trkpt>
      <trkpt lat="48.892470000" lon="3.253832000">
        <ele>133.000000</ele>
        <time>2025-07-29T19:02:40Z</time>
      </trkpt>
      <trkpt lat="48.892334000" lon="3.253391000">
        <ele>127.000000</ele>
        <time>2025-07-29T19:03:17Z</time>
      </trkpt>
      <trkpt lat="48.892251000" lon="3.253175000">
        <ele>125.000000</ele>
        <time>2025-07-29T19:03:36Z</time>
      </trkpt>
      <trkpt lat="48.892133000" lon="3.252972000">
        <ele>122.000000</ele>
        <time>2025-07-29T19:03:56Z</time>
      </trkpt>
      <trkpt lat="48.891702000" lon="3.252312000">
        <ele>116.000000</ele>
        <time>2025-07-29T19:05:06Z</time>
      </trkpt>
      <trkpt lat="48.891358000" lon="3.251881000">
        <ele>111.000000</ele>
        <time>2025-07-29T19:05:57Z</time>
      </trkpt>
      <trkpt lat="48.891020000" lon="3.251531000">
        <ele>108.000000</ele>
        <time>2025-07-29T19:06:44Z</time>
      </trkpt>
      <trkpt lat="48.890894000" lon="3.251532000">
        <ele>107.000000</ele>
        <time>2025-07-29T19:06:58Z</time>
      </trkpt>
    </trkseg>
  </trk>
</gpx>
